• Join FlightAware (Why Join?)
  • Login
  • US Flag 
05:50AM EST


 

Airport Tracker/Info


-or-


 

Live Flight TrackerFlight Track Log ✈ N690TW ✈ 01-Nov-2013 ✈ KUTA - KBJC

Flight Track Log - Related Links

Times and Time Zones

All times are in EDT time to prevent confusion due to time zone crossing. See the N690TW flight status page for this flight to view local times or setup timezone preferences in your user account.

Time Position Orientation Groundspeed Altitude Reporting Facility
EDT Latitude Longitude Course Direction KTS MPH feet Rate Location/Type
04:21PM 34.7667 -90.5667 281° West 199 229 6,000  Level KMEM
04:22PM 34.7756 -90.6225 281° West 171 197 7,700 1,380 Climbing Memphis Center
04:23PM 34.7919 -90.6706 293° West 176 203 8,900 1,440 Climbing Memphis Center
04:24PM 34.8086 -90.7214 292° West 170 196 10,600 1,500 Climbing Memphis Center
04:25PM 34.8272 -90.7744 293° West 170 196 11,900 1,440 Climbing Memphis Center
04:26PM 34.8458 -90.8278 293° West 170 196 13,500 1,440 Climbing Memphis Center
04:27PM 34.8622 -90.8783 292° West 170 196 14,800 720 Climbing Memphis Center
04:28PM 34.8831 -90.9369 293° West 180 207 15,000 60 Climbing Memphis Center
04:29PM 34.9075 -91.0131 291° West 209 241 15,000  Level Memphis Center
04:30PM 34.9322 -91.0817 294° West 220 253 15,000 60 Level Memphis Center
04:31PM 34.9547 -91.1500 292° West 220 253 15,200 1,080 Climbing Memphis Center
04:32PM 34.9733 -91.2061 292° West 201 231 17,200 1,980 Climbing Memphis Center
04:33PM 34.9875 -91.2544 290° West 170 196 19,200 1,800 Climbing Memphis Center
04:34PM 35.0039 -91.3028 292° West 158 182 20,900 1,620 Climbing Memphis Center
04:35PM 35.0200 -91.3511 292° West 153 176 22,500 1,500 Climbing Memphis Center
04:36PM 35.0364 -91.3969 294° West 148 170 23,900 1,320 Climbing Memphis Center
04:37PM 35.0486 -91.4428 288° West 148 170 25,200 960 Climbing Memphis Center
04:38PM 35.0647 -91.4936 291° West 148 170 25,900 660 Climbing Memphis Center
04:39PM 35.0831 -91.5522 291° West 163 188 26,600 660 Climbing Memphis Center
04:40PM 35.1056 -91.6083 296° West 175 201 27,300 660 Climbing Memphis Center
04:41PM 35.1217 -91.6644 289° West 180 207 28,000 660 Climbing Memphis Center
04:42PM 35.1397 -91.7206 291° West 180 207 28,700 660 Climbing Memphis Center
04:43PM 35.1578 -91.7769 291° West 180 207 29,400 660 Climbing Memphis Center
04:44PM 35.1761 -91.8306 293° West 180 207 30,100 600 Climbing Memphis Center
04:45PM 35.1922 -91.8842 290° West 175 201 30,700 540 Climbing Memphis Center
04:46PM 35.2103 -91.9378 292° West 170 196 31,200 480 Climbing Memphis Center
04:47PM 35.2283 -91.9942 291° West 170 196 31,700 480 Climbing Memphis Center
04:48PM 35.2464 -92.0478 292° West 170 196 32,200 480 Climbing Memphis Center
04:49PM 35.2642 -92.1067 290° West 170 196 32,700 480 Climbing Memphis Center
04:50PM 35.2822 -92.1606 292° West 170 196 33,200 480 Climbing Memphis Center
04:51PM 35.2983 -92.2117 291° West 170 196 33,700 360 Climbing Memphis Center
04:52PM 35.3119 -92.2603 289° West 170 196 34,000 120 Climbing Memphis Center
04:53PM 35.3300 -92.3142 292° West 170 196 34,000  Level Memphis Center
04:54PM 35.3500 -92.3733 293° West 170 196 34,000  Level Memphis Center
04:55PM 35.3697 -92.4372 291° West 186 214 34,000  Level Memphis Center
04:56PM 35.3894 -92.4989 291° West 191 220 34,000  Level Memphis Center
04:57PM 35.4092 -92.5656 290° West 196 226 34,000  Level Memphis Center
04:58PM 35.4311 -92.6300 293° West 201 231 34,000  Level Memphis Center
04:59PM 35.4508 -92.6942 291° West 206 237 34,000  Level Memphis Center
05:00PM 35.4725 -92.7586 292° West 206 237 34,000  Level Memphis Center
05:01PM 35.4942 -92.8256 292° West 206 237 34,000  Level Memphis Center
05:02PM 35.5136 -92.8847 292° West 211 243 34,000  Level Memphis Center
05:03PM 35.5375 -92.9517 294° West 211 243 34,000  Level Memphis Center
05:04PM 35.5567 -93.0214 289° West 211 243 34,000  Level Memphis Center
05:05PM 35.5761 -93.0908 289° West 211 243 34,000  Level Memphis Center
05:06PM 35.5956 -93.1578 290° West 211 243 34,000  Level Memphis Center
05:07PM 35.6211 -93.2225 296° West 211 243 34,000  Level Memphis Center
05:08PM 35.6553 -93.2850 304° West 217 250 34,000  Level Memphis Center
05:09PM 35.6892 -93.3503 303° West 222 255 34,000  Level Memphis Center
05:10PM 35.7208 -93.4100 303° West 222 255 34,000  Level Memphis Center
05:11PM 35.7506 -93.4803 298° West 222 255 34,000  Level Memphis Center
05:12PM 35.7739 -93.5478 293° West 222 255 34,000  Level Memphis Center
05:13PM 35.7972 -93.6150 293° West 217 250 34,000  Level Memphis Center
05:14PM 35.8225 -93.6828 295° West 217 250 34,000  Level Memphis Center
05:15PM 35.8456 -93.7503 293° West 217 250 34,000  Level Memphis Center
05:16PM 35.8689 -93.8178 293° West 217 250 34,000  Level Memphis Center
05:17PM 35.8942 -93.8828 296° West 217 250 34,000  Level Memphis Center
05:18PM 35.9169 -93.9556 291° West 217 250 34,000  Level Memphis Center
05:19PM 35.9400 -94.0233 293° West 217 250 34,000  Level Memphis Center
05:20PM 35.9628 -94.0986 291° West 212 244 34,000  Level Memphis Center
05:21PM 35.9919 -94.1692 297° West 212 244 34,000  Level Memphis Center
05:22PM 36.0150 -94.2369 293° West 212 244 34,000  Level Memphis Center
05:23PM 36.0378 -94.3047 293° West 212 244 34,000  Level Memphis Center
05:24PM 36.0628 -94.3753 294° West 212 244 34,000  Level Memphis Center
05:25PM 36.0856 -94.4433 293° West 212 244 34,000  Level Memphis Center
05:28PM 36.1408 -94.5903 295° West 216 249 34,000  Level Kansas City Center
05:29PM 36.1636 -94.6578 293° West 213 245 34,000  Level Kansas City Center
05:30PM 36.1883 -94.7267 294° West 217 250 34,000  Level Kansas City Center
05:31PM 36.2119 -94.7953 293° West 216 249 34,000  Level Kansas City Center
05:32PM 36.2353 -94.8636 293° West 216 249 34,000  Level Kansas City Center
05:33PM 36.2633 -94.9461 293° West 215 247 34,000  Level Kansas City Center
05:34PM 36.2867 -95.0142 293° West 214 246 34,000  Level Kansas City Center
05:35PM 36.3097 -95.0822 293° West 214 246 34,000  Level Kansas City Center
05:36PM 36.3303 -95.1425 293° West 210 242 34,000  Level Kansas City Center
05:37PM 36.3581 -95.2233 293° West 212 244 34,000  Level Kansas City Center
05:38PM 36.3800 -95.2889 293° West 208 239 34,000  Level Kansas City Center
05:39PM 36.4025 -95.3547 293° West 208 239 34,000  Level Kansas City Center
05:40PM 36.4239 -95.4194 292° West 206 237 34,000  Level Kansas City Center
05:41PM 36.4456 -95.4825 293° West 203 234 34,000  Level Kansas City Center
05:42PM 36.4722 -95.5617 293° West 204 235 34,000  Level Kansas City Center
05:43PM 36.4956 -95.6306 293° West 209 241 34,000  Level Kansas City Center
05:44PM 36.5164 -95.6933 292° West 200 230 34,000  Level Kansas City Center
05:45PM 36.5389 -95.7622 292° West 205 236 34,000  Level Kansas City Center
05:46PM 36.5608 -95.8269 293° West 204 235 34,000  Level Kansas City Center
05:47PM 36.5831 -95.8928 293° West 205 236 34,000  Level Kansas City Center
05:48PM 36.6042 -95.9586 292° West 204 235 34,000  Level Kansas City Center
05:49PM 36.6306 -96.0369 293° West 205 236 34,000  Level Kansas City Center
05:50PM 36.6528 -96.1036 293° West 207 238 34,000  Level Kansas City Center
05:52PM 36.6750 -96.1719 292° West 211 243 34,000  Level Kansas City Center
05:53PM 36.6975 -96.2400 292° West 213 245 34,000  Level Kansas City Center
05:54PM 36.7189 -96.3064 292° West 209 241 34,000  Level Kansas City Center
05:55PM 36.7414 -96.3736 293° West 210 242 34,000  Level Kansas City Center
05:56PM 36.7631 -96.4403 292° West 207 238 34,000  Level Kansas City Center
05:57PM 36.7886 -96.5183 292° West 204 235 34,000  Level Kansas City Center
05:58PM 36.8094 -96.5836 292° West 203 234 34,000  Level Kansas City Center
05:59PM 36.8303 -96.6508 291° West 205 236 34,000  Level Kansas City Center
06:00PM 36.8525 -96.7167 293° West 206 237 34,000  Level Kansas City Center
06:01PM 36.8736 -96.7886 290° West 207 238 34,000  Level Kansas City Center
06:02PM 36.8950 -96.8519 293° West 202 232 34,000  Level Kansas City Center
06:03PM 36.9158 -96.9164 292° West 200 230 34,000  Level Kansas City Center
06:04PM 36.9356 -96.9814 291° West 200 230 34,000  Level Kansas City Center
06:05PM 36.9572 -97.0447 293° West 199 229 34,000  Level Kansas City Center
06:06PM 36.9825 -97.1219 292° West 200 230 34,000  Level Kansas City Center
06:07PM 37.0028 -97.1875 291° West 200 230 34,000  Level Kansas City Center
06:08PM 37.0222 -97.2519 291° West 200 230 34,000  Level Kansas City Center
06:09PM 37.0417 -97.3158 291° West 198 228 34,000  Level Kansas City Center
06:10PM 37.0619 -97.3800 292° West 198 228 34,000  Level Kansas City Center
06:11PM 37.0828 -97.4458 292° West 200 230 34,000  Level Kansas City Center
06:12PM 37.1081 -97.5256 292° West 203 234 34,000  Level Kansas City Center
06:13PM 37.1289 -97.5922 291° West 205 236 34,000  Level Kansas City Center
06:14PM 37.1494 -97.6583 291° West 203 234 34,000  Level Kansas City Center
06:15PM 37.1703 -97.7233 292° West 201 231 34,000  Level Kansas City Center
06:16PM 37.1906 -97.7886 291° West 201 231 34,000  Level Kansas City Center
06:17PM 37.2106 -97.8536 291° West 200 230 34,000  Level Kansas City Center
06:18PM 37.2308 -97.9194 291° West 201 231 34,000  Level Kansas City Center
06:19PM 37.2556 -98.0006 291° West 205 236 34,000  Level Kansas City Center
06:20PM 37.2758 -98.0669 291° West 204 235 34,000  Level Kansas City Center
06:21PM 37.2956 -98.1325 291° West 202 232 34,000  Level Kansas City Center
06:23PM 37.3161 -98.1992 291° West 203 234 34,000  Level Kansas City Center
06:24PM 37.3358 -98.2644 291° West 202 232 34,000  Level Kansas City Center
06:25PM 37.3564 -98.3294 292° West 200 230 34,000  Level Kansas City Center
06:26PM 37.3764 -98.3964 291° West 202 232 34,000  Level Kansas City Center
06:27PM 37.4014 -98.4769 291° West 205 236 34,000 -60 Level Kansas City Center
06:28PM 37.4206 -98.5433 290° West 203 234 33,900  Descending Kansas City Center
06:29PM 37.4414 -98.6094 292° West 203 234 34,000  Climbing Kansas City Center
06:30PM 37.4614 -98.6758 291° West 203 234 34,000  Level Kansas City Center
06:31PM 37.4817 -98.7422 291° West 202 232 34,000  Level Kansas City Center
06:32PM 37.5006 -98.8089 290° West 202 232 34,000  Level Kansas City Center
06:33PM 37.5214 -98.8756 292° West 204 235 34,000  Level Kansas City Center
06:34PM 37.5450 -98.9561 290° West 204 235 34,000  Level Kansas City Center
06:35PM 37.5644 -99.0208 291° West 201 231 34,000  Level Kansas City Center
06:36PM 37.5836 -99.0872 290° West 201 231 34,000  Level Kansas City Center
06:37PM 37.6031 -99.1536 290° West 201 231 34,000 -120 Level Kansas City Center
06:38PM 37.6236 -99.2222 291° West 206 237 33,800 -300 Descending Kansas City Center
06:39PM 37.6439 -99.2939 290° West 213 245 33,400 -420 Descending Kansas City Center
06:40PM 37.6664 -99.3683 291° West 223 257 33,000 -240 Descending Kansas City Center
06:41PM 37.6925 -99.4567 291° West 223 257 33,000  Level Kansas City Center
06:42PM 37.7131 -99.5225 292° West 218 251 33,000  Level Kansas City Center
06:43PM 37.7356 -99.6011 290° West 214 246 33,000  Level Kansas City Center
06:44PM 37.7550 -99.6681 290° West 213 245 33,000  Level Kansas City Center
06:45PM 37.7778 -99.7469 290° West 213 245 33,000  Level Kansas City Center
06:46PM 37.7972 -99.8131 290° West 212 244 33,000  Level Kansas City Center
06:47PM 37.8194 -99.8897 290° West 210 242 33,000  Level Kansas City Center
06:48PM 37.8381 -99.9558 290° West 209 241 33,000  Level Kansas City Center
06:49PM 37.8572 -100.0250 289° West 214 246 33,000  Level Kansas City Center
06:50PM 37.8800 -100.1031 290° West 213 245 33,000  Level Kansas City Center
06:51PM 37.9000 -100.1708 291° West 214 246 33,000  Level Kansas City Center
06:52PM 37.9211 -100.2500 289° West 213 245 33,000  Level Kansas City Center
06:53PM 37.9408 -100.3158 291° West 211 243 33,000  Level Kansas City Center
06:55PM 37.9622 -100.3936 289° West 210 242 33,000  Level Kansas City Center
06:56PM 37.9811 -100.4600 290° West 210 242 33,000  Level Kansas City Center
06:57PM 38.0031 -100.5381 290° West 211 243 33,000  Level Kansas City Center
06:58PM 38.0211 -100.6047 289° West 210 242 33,000  Level Kansas City Center
06:59PM 38.0439 -100.6822 290° West 211 243 33,000  Level Kansas City Center
07:00PM 38.0614 -100.7500 288° West 212 244 33,000  Level Kansas City Center
07:01PM 38.0842 -100.8267 291° West 210 242 33,000  Level Kansas City Center
07:02PM 38.1019 -100.8928 289° West 208 239 33,000  Level Kansas City Center
07:03PM 38.1236 -100.9711 289° West 211 243 33,000  Level Kansas City Center
07:04PM 38.1414 -101.0383 289° West 211 243 33,000  Level Kansas City Center
07:05PM 38.1631 -101.1172 289° West 212 244 33,000  Level Kansas City Center
07:06PM 38.1814 -101.1858 289° West 214 246 33,000  Level Kansas City Center
07:07PM 38.2033 -101.2672 289° West 217 250 33,000  Level Kansas City Center
07:08PM 38.2256 -101.3469 290° West 216 249 33,000  Level Denver Center
07:09PM 38.2472 -101.4278 289° West 217 250 33,000  Level Denver Center
07:10PM 38.2664 -101.4967 290° West 216 249 33,000  Level Denver Center
07:11PM 38.2847 -101.5669 288° West 218 251 33,000  Level Denver Center
07:12PM 38.3067 -101.6469 289° West 216 249 33,000  Level Denver Center
07:13PM 38.3250 -101.7175 288° West 219 252 33,000  Level Denver Center
07:14PM 38.3464 -101.7983 289° West 218 251 33,000  Level Denver Center
07:15PM 38.3658 -101.8656 290° West 214 246 33,000  Level Denver Center
07:16PM 38.3861 -101.9478 287° West 217 250 33,000  Level Denver Center
07:17PM 38.4028 -102.0172 287° West 216 249 33,000  Level Denver Center
07:18PM 38.4228 -102.1000 287° West 217 250 33,000  Level Denver Center
07:19PM 38.4389 -102.1711 286° West 218 251 33,000 -180 Level Denver Center
07:20PM 38.4583 -102.2547 287° West 220 253 32,700 -420 Descending Denver Center
07:22PM 38.4769 -102.3306 287° West 229 264 32,200 -540 Descending Denver Center
07:23PM 38.4981 -102.4239 286° West 241 277 31,700 -540 Descending Denver Center
07:24PM 38.5167 -102.5014 287° West 239 275 31,200 -540 Descending Denver Center
07:25PM 38.5372 -102.5917 286° West 237 273 30,600 -540 Descending Denver Center
07:26PM 38.5567 -102.6703 288° West 242 278 30,200 -480 Descending Denver Center
07:27PM 38.5739 -102.7472 286° West 236 272 29,700 -540 Descending Denver Center
07:28PM 38.5942 -102.8358 286° West 233 268 29,100 -540 Descending Denver Center
07:29PM 38.6131 -102.9131 287° West 229 264 28,600 -600 Descending Denver Center
07:30PM 38.6297 -102.9886 286° West 223 257 27,900 -780 Descending Denver Center
07:31PM 38.6472 -103.0656 286° West 226 260 27,100 -840 Descending Denver Center
07:32PM 38.6689 -103.1578 287° West 226 260 26,200 -840 Descending Denver Center
07:33PM 38.6872 -103.2369 287° West 231 266 25,400 -840 Descending Denver Center
07:34PM 38.7047 -103.3158 286° West 232 267 24,500 -900 Descending Denver Center
07:35PM 38.7228 -103.3939 287° West 230 265 23,600 -960 Descending Denver Center
07:36PM 38.7422 -103.4817 286° West 230 265 22,600 -960 Descending Denver Center
07:37PM 38.7592 -103.5597 286° West 237 273 21,700 -960 Descending Denver Center
07:38PM 38.7806 -103.6536 286° West 246 283 20,700 -960 Descending Denver Center
07:39PM 38.7983 -103.7383 285° West 257 296 19,800 -840 Descending Denver Center
07:40PM 38.8183 -103.8239 287° West 261 300 19,000 -960 Descending Denver Center
07:40PM 38.8275 -103.8625 287° West 256 295 18,500 -1,080 Descending Denver Center
07:41PM 38.8397 -103.9225 285° West 258 297 17,900 -780 Descending Denver Center
07:42PM 38.8586 -104.0086 286° West 257 296 17,200 -840 Descending Denver Center
07:43PM 38.8775 -104.0956 286° West 254 292 16,200 -1,020 Descending Denver Center
07:44PM 38.8903 -104.1872 280° West 250 288 15,100 -1,080 Descending Denver Center
07:44PM 38.8964 -104.2156 285° West 253 291 14,900 -1,200 Descending Denver Center
07:45PM 38.9331 -104.2619 315° West 250 288 13,900 -1,080 Descending Denver Center
07:46PM 38.9847 -104.3075 326° Northwest 238 274 13,000 -1,020 Descending Denver Center
07:47PM 39.0469 -104.3636 325° Northwest 241 277 11,900 -1,020 Descending Denver Center
07:48PM 39.1000 -104.4086 327° Northwest 240 276 11,000 -540 Descending Denver Center
07:49PM 39.1600 -104.4617 326° Northwest 242 278 10,800 -600 Descending Denver Center
07:50PM 39.2192 -104.5125 326° Northwest 239 275 9,800 -900 Descending Denver Center
07:51PM 39.2619 -104.5686 315° West 225 259 9,000 -420 Descending Denver Center
07:53PM 39.2964 -104.6381 303° West 229 264 9,000  Level Denver Center
07:54PM 39.3319 -104.7069 304° West 219 252 9,000  Level Denver Center
07:55PM 39.3678 -104.7717 306° West 220 253 9,000  Level Denver Center
07:56PM 39.4278 -104.8103 334° Northwest 224 258 9,000  Level Denver Center
07:57PM 39.4850 -104.8469 334° Northwest 228 262 9,000  Level Denver Center
07:58PM 39.5422 -104.8825 334° Northwest 229 264 9,000  Level Denver Center
07:59PM 39.6067 -104.9161 338° Northwest 233 268 9,000 -180 Level Denver Center
08:00PM 39.6664 -104.9419 342° North 229 264 8,700 -540 Descending Denver Center
08:01PM 39.7333 -104.9708 342° North 236 272 8,000 -660 Descending Denver Center
08:02PM 39.7936 -104.9958 342° North 228 262 7,400 -540 Descending Denver Center
08:03PM 39.8467 -105.0247 337° Northwest 207 238 6,900 -540 Descending Denver Center
08:04PM 39.8781 -105.0589 320° Northwest 135 155 6,400 -540 Descending Denver Center
08:05PM 39.8936 -105.0881 305° West 103 119 5,900 -420 Descending Denver Center
08:06PM 39.9069 -105.1114 307° West 92 106 5,600 -300 Descending Denver Center
08:08PM 39.9088 -105.1172 293° West  Level Estimated
08:15PM 39.9088 -105.1172 217° Southwest  Level Estimated
08:16PM 39.9088 -105.1172 217° Southwest  Level Estimated